sensor_id;sensor_type;location;lat;lon;timestamp;pressure;altitude;pressure_sealevel;temperature;humidity
72336;BME280;65062;48.446;8.834;2023-02-01T00:02:34;98271.06;;;2.88;84.23
72336;BME280;65062;48.446;8.834;2023-02-01T00:05:36;98275.63;;;2.85;84.31
72336;BME280;65062;48.446;8.834;2023-02-01T00:08:36;98263.63;;;2.95;84.34
72336;BME280;65062;48.446;8.834;2023-02-01T00:11:36;98261.41;;;3.01;83.48
72336;BME280;65062;48.446;8.834;2023-02-01T00:14:37;98259.50;;;3.03;83.39
72336;BME280;65062;48.446;8.834;2023-02-01T00:17:39;98258.09;;;3.10;82.46
72336;BME280;65062;48.446;8.834;2023-02-01T00:20:45;98257.63;;;3.05;83.34
72336;BME280;65062;48.446;8.834;2023-02-01T00:23:46;98249.88;;;3.05;83.78
72336;BME280;65062;48.446;8.834;2023-02-01T00:26:46;98249.38;;;3.00;83.91
72336;BME280;65062;48.446;8.834;2023-02-01T00:29:47;98239.75;;;3.02;83.70
72336;BME280;65062;48.446;8.834;2023-02-01T00:32:48;98246.81;;;3.11;83.81
72336;BME280;65062;48.446;8.834;2023-02-01T00:35:48;98236.94;;;3.05;83.80
72336;BME280;65062;48.446;8.834;2023-02-01T00:38:49;98240.22;;;3.07;84.04
72336;BME280;65062;48.446;8.834;2023-02-01T00:41:49;98242.72;;;2.98;84.72
72336;BME280;65062;48.446;8.834;2023-02-01T00:44:49;98235.91;;;2.97;84.19
72336;BME280;65062;48.446;8.834;2023-02-01T00:47:50;98239.16;;;2.99;85.01
72336;BME280;65062;48.446;8.834;2023-02-01T00:50:50;98234.94;;;2.98;84.88
72336;BME280;65062;48.446;8.834;2023-02-01T00:53:51;98225.81;;;2.94;85.34
72336;BME280;65062;48.446;8.834;2023-02-01T00:56:51;98227.44;;;2.95;85.18
72336;BME280;65062;48.446;8.834;2023-02-01T00:59:52;98210.50;;;3.02;84.81
72336;BME280;65062;48.446;8.834;2023-02-01T01:02:52;98209.09;;;2.98;85.03
72336;BME280;65062;48.446;8.834;2023-02-01T01:05:56;98209.03;;;2.88;85.48
72336;BME280;65062;48.446;8.834;2023-02-01T01:08:58;98206.66;;;2.85;85.99
72336;BME280;65062;48.446;8.834;2023-02-01T01:11:59;98209.72;;;2.79;86.26
72336;BME280;65062;48.446;8.834;2023-02-01T01:15:03;98206.19;;;2.80;86.46
72336;BME280;65062;48.446;8.834;2023-02-01T01:18:03;98201.13;;;2.90;86.48
72336;BME280;65062;48.446;8.834;2023-02-01T01:21:05;98207.00;;;2.92;86.53
72336;BME280;65062;48.446;8.834;2023-02-01T01:24:06;98202.41;;;2.95;86.25
72336;BME280;65062;48.446;8.834;2023-02-01T01:27:06;98201.25;;;2.88;86.52
72336;BME280;65062;48.446;8.834;2023-02-01T01:30:07;98202.53;;;2.83;87.20
72336;BME280;65062;48.446;8.834;2023-02-01T01:33:07;98205.13;;;2.83;87.26
72336;BME280;65062;48.446;8.834;2023-02-01T01:36:09;98204.44;;;2.81;87.69
72336;BME280;65062;48.446;8.834;2023-02-01T01:39:12;98202.53;;;2.94;87.55
72336;BME280;65062;48.446;8.834;2023-02-01T01:42:13;98192.91;;;2.85;86.96
72336;BME280;65062;48.446;8.834;2023-02-01T01:48:25;98181.88;;;2.83;86.50
72336;BME280;65062;48.446;8.834;2023-02-01T01:51:30;98172.06;;;2.97;86.82
72336;BME280;65062;48.446;8.834;2023-02-01T01:54:38;98171.19;;;3.19;85.13
72336;BME280;65062;48.446;8.834;2023-02-01T01:57:40;98177.81;;;3.12;84.99
72336;BME280;65062;48.446;8.834;2023-02-01T02:00:42;98172.38;;;3.15;85.25
72336;BME280;65062;48.446;8.834;2023-02-01T02:03:45;98165.91;;;3.20;84.91
72336;BME280;65062;48.446;8.834;2023-02-01T02:07:04;98169.03;;;3.24;84.93
72336;BME280;65062;48.446;8.834;2023-02-01T02:10:07;98168.63;;;3.19;84.69
72336;BME280;65062;48.446;8.834;2023-02-01T02:13:10;98166.69;;;3.32;84.71
72336;BME280;65062;48.446;8.834;2023-02-01T02:29:53;98159.56;;;3.65;82.85
72336;BME280;65062;48.446;8.834;2023-02-01T02:33:21;98142.84;;;3.49;84.18
72336;BME280;65062;48.446;8.834;2023-02-01T02:40:05;98141.56;;;3.43;84.79
72336;BME280;65062;48.446;8.834;2023-02-01T02:43:18;98135.19;;;3.47;84.46
72336;BME280;65062;48.446;8.834;2023-02-01T02:46:46;98137.09;;;3.45;84.67
72336;BME280;65062;48.446;8.834;2023-02-01T02:53:56;98142.53;;;3.42;84.93
72336;BME280;65062;48.446;8.834;2023-02-01T02:57:27;98139.09;;;3.42;84.27
72336;BME280;65062;48.446;8.834;2023-02-01T03:00:48;98146.03;;;3.41;85.07
72336;BME280;65062;48.446;8.834;2023-02-01T03:04:08;98148.50;;;3.43;84.97
72336;BME280;65062;48.446;8.834;2023-02-01T03:07:13;98149.41;;;3.53;83.78
72336;BME280;65062;48.446;8.834;2023-02-01T03:10:35;98152.56;;;3.56;83.52
72336;BME280;65062;48.446;8.834;2023-02-01T03:16:52;98146.84;;;3.53;83.46
72336;BME280;65062;48.446;8.834;2023-02-01T03:19:59;98146.59;;;3.56;83.21
72336;BME280;65062;48.446;8.834;2023-02-01T03:23:02;98144.78;;;3.56;83.39
72336;BME280;65062;48.446;8.834;2023-02-01T03:26:09;98151.75;;;3.56;83.14
72336;BME280;65062;48.446;8.834;2023-02-01T03:29:16;98159.91;;;3.51;83.72
72336;BME280;65062;48.446;8.834;2023-02-01T03:32:18;98156.59;;;3.49;83.38
72336;BME280;65062;48.446;8.834;2023-02-01T03:35:23;98150.41;;;3.41;83.88
72336;BME280;65062;48.446;8.834;2023-02-01T03:41:49;98153.25;;;3.38;84.47
72336;BME280;65062;48.446;8.834;2023-02-01T03:45:00;98162.34;;;3.32;84.55
72336;BME280;65062;48.446;8.834;2023-02-01T03:48:03;98166.31;;;3.36;84.32
72336;BME280;65062;48.446;8.834;2023-02-01T03:51:06;98169.38;;;3.30;84.80
72336;BME280;65062;48.446;8.834;2023-02-01T03:54:12;98171.59;;;3.35;84.55
72336;BME280;65062;48.446;8.834;2023-02-01T03:57:14;98169.81;;;3.35;84.33
72336;BME280;65062;48.446;8.834;2023-02-01T04:00:20;98157.84;;;3.34;84.08
72336;BME280;65062;48.446;8.834;2023-02-01T04:03:22;98143.94;;;3.35;83.81
72336;BME280;65062;48.446;8.834;2023-02-01T04:06:24;98147.38;;;3.36;84.01
72336;BME280;65062;48.446;8.834;2023-02-01T04:09:24;98141.00;;;3.40;83.48
72336;BME280;65062;48.446;8.834;2023-02-01T04:12:25;98132.31;;;3.41;83.49
72336;BME280;65062;48.446;8.834;2023-02-01T04:15:25;98113.31;;;3.31;83.04
72336;BME280;65062;48.446;8.834;2023-02-01T04:18:26;98104.84;;;3.29;83.34
72336;BME280;65062;48.446;8.834;2023-02-01T04:21:26;98106.59;;;3.28;83.13
72336;BME280;65062;48.446;8.834;2023-02-01T04:24:27;98102.25;;;3.29;83.42
72336;BME280;65062;48.446;8.834;2023-02-01T04:27:27;98096.63;;;3.24;83.20
72336;BME280;65062;48.446;8.834;2023-02-01T04:30:27;98109.38;;;3.16;83.57
72336;BME280;65062;48.446;8.834;2023-02-01T04:33:28;98116.53;;;3.23;83.98
72336;BME280;65062;48.446;8.834;2023-02-01T04:36:28;98142.00;;;3.28;82.68
72336;BME280;65062;48.446;8.834;2023-02-01T04:39:29;98146.53;;;3.35;83.02
72336;BME280;65062;48.446;8.834;2023-02-01T04:42:29;98149.53;;;3.31;83.02
72336;BME280;65062;48.446;8.834;2023-02-01T04:45:30;98149.00;;;3.37;81.97
72336;BME280;65062;48.446;8.834;2023-02-01T04:48:31;98145.25;;;3.41;82.14
72336;BME280;65062;48.446;8.834;2023-02-01T04:51:31;98150.66;;;3.38;82.58
72336;BME280;65062;48.446;8.834;2023-02-01T04:54:32;98139.97;;;3.31;82.19
72336;BME280;65062;48.446;8.834;2023-02-01T04:57:32;98133.94;;;3.42;81.79
72336;BME280;65062;48.446;8.834;2023-02-01T05:00:33;98126.63;;;3.47;81.51
72336;BME280;65062;48.446;8.834;2023-02-01T05:03:34;98132.22;;;3.52;81.41
72336;BME280;65062;48.446;8.834;2023-02-01T05:06:34;98130.16;;;3.46;81.64
72336;BME280;65062;48.446;8.834;2023-02-01T05:09:35;98114.63;;;3.46;81.53
72336;BME280;65062;48.446;8.834;2023-02-01T05:12:35;98111.34;;;3.44;81.00
72336;BME280;65062;48.446;8.834;2023-02-01T05:15:54;98120.00;;;3.54;81.03
72336;BME280;65062;48.446;8.834;2023-02-01T05:18:54;98118.50;;;3.51;81.28
72336;BME280;65062;48.446;8.834;2023-02-01T05:21:55;98131.00;;;3.35;82.23
72336;BME280;65062;48.446;8.834;2023-02-01T05:24:55;98138.22;;;3.52;81.03
72336;BME280;65062;48.446;8.834;2023-02-01T05:27:56;98144.13;;;3.54;80.59
72336;BME280;65062;48.446;8.834;2023-02-01T05:30:56;98133.91;;;3.53;80.75
72336;BME280;65062;48.446;8.834;2023-02-01T05:33:56;98143.47;;;3.62;80.59
72336;BME280;65062;48.446;8.834;2023-02-01T05:36:57;98143.72;;;3.59;80.69
72336;BME280;65062;48.446;8.834;2023-02-01T05:39:57;98140.88;;;3.62;80.52
72336;BME280;65062;48.446;8.834;2023-02-01T05:42:57;98135.91;;;3.70;80.06
72336;BME280;65062;48.446;8.834;2023-02-01T05:45:58;98141.06;;;3.70;79.31
72336;BME280;65062;48.446;8.834;2023-02-01T05:48:58;98155.47;;;3.63;80.88
72336;BME280;65062;48.446;8.834;2023-02-01T05:51:59;98157.97;;;3.74;79.75
72336;BME280;65062;48.446;8.834;2023-02-01T05:54:59;98172.38;;;3.67;80.69
72336;BME280;65062;48.446;8.834;2023-02-01T05:57:59;98174.00;;;3.68;80.85
72336;BME280;65062;48.446;8.834;2023-02-01T06:01:00;98158.22;;;3.71;79.74
72336;BME280;65062;48.446;8.834;2023-02-01T06:04:01;98163.78;;;3.66;80.37
72336;BME280;65062;48.446;8.834;2023-02-01T06:07:02;98181.03;;;3.56;80.59
72336;BME280;65062;48.446;8.834;2023-02-01T06:10:02;98172.13;;;3.70;80.20
72336;BME280;65062;48.446;8.834;2023-02-01T06:13:03;98170.78;;;3.75;80.62
72336;BME280;65062;48.446;8.834;2023-02-01T06:16:04;98162.72;;;3.69;80.79
72336;BME280;65062;48.446;8.834;2023-02-01T06:19:07;98174.09;;;3.57;81.43
72336;BME280;65062;48.446;8.834;2023-02-01T06:22:07;98175.84;;;3.56;81.65
72336;BME280;65062;48.446;8.834;2023-02-01T06:25:09;98172.47;;;3.56;81.97
72336;BME280;65062;48.446;8.834;2023-02-01T06:28:09;98176.44;;;3.60;81.34
72336;BME280;65062;48.446;8.834;2023-02-01T06:31:10;98169.03;;;3.55;81.33
72336;BME280;65062;48.446;8.834;2023-02-01T06:34:10;98162.16;;;3.65;81.00
72336;BME280;65062;48.446;8.834;2023-02-01T06:37:11;98161.91;;;3.68;80.41
72336;BME280;65062;48.446;8.834;2023-02-01T06:40:11;98161.53;;;3.73;81.24
72336;BME280;65062;48.446;8.834;2023-02-01T06:43:12;98165.13;;;3.81;80.49
72336;BME280;65062;48.446;8.834;2023-02-01T06:46:12;98175.09;;;3.86;80.53
72336;BME280;65062;48.446;8.834;2023-02-01T06:49:13;98180.16;;;3.87;81.10
72336;BME280;65062;48.446;8.834;2023-02-01T06:52:13;98182.69;;;3.78;80.95
72336;BME280;65062;48.446;8.834;2023-02-01T06:55:14;98172.81;;;3.51;82.54
72336;BME280;65062;48.446;8.834;2023-02-01T06:58:14;98175.72;;;3.58;83.07
72336;BME280;65062;48.446;8.834;2023-02-01T07:01:15;98170.88;;;3.44;83.65
72336;BME280;65062;48.446;8.834;2023-02-01T07:04:15;98187.56;;;3.40;84.41
72336;BME280;65062;48.446;8.834;2023-02-01T07:07:16;98189.09;;;3.42;83.09
72336;BME280;65062;48.446;8.834;2023-02-01T07:10:17;98202.72;;;3.44;84.04
72336;BME280;65062;48.446;8.834;2023-02-01T07:13:17;98197.50;;;3.55;81.99
72336;BME280;65062;48.446;8.834;2023-02-01T07:16:19;98196.53;;;3.56;83.03
72336;BME280;65062;48.446;8.834;2023-02-01T07:19:19;98191.97;;;3.60;82.08
72336;BME280;65062;48.446;8.834;2023-02-01T07:22:19;98182.03;;;3.65;81.98
72336;BME280;65062;48.446;8.834;2023-02-01T07:25:20;98188.88;;;3.66;82.21
72336;BME280;65062;48.446;8.834;2023-02-01T07:28:21;98202.31;;;3.60;81.53
72336;BME280;65062;48.446;8.834;2023-02-01T07:31:22;98203.94;;;3.61;81.52
72336;BME280;65062;48.446;8.834;2023-02-01T07:34:22;98205.56;;;3.62;81.72
72336;BME280;65062;48.446;8.834;2023-02-01T07:37:23;98208.81;;;3.54;82.05
72336;BME280;65062;48.446;8.834;2023-02-01T07:40:24;98202.22;;;3.50;82.63
72336;BME280;65062;48.446;8.834;2023-02-01T07:43:31;98215.56;;;3.66;81.05
72336;BME280;65062;48.446;8.834;2023-02-01T07:46:33;98213.03;;;3.76;81.18
72336;BME280;65062;48.446;8.834;2023-02-01T07:49:34;98205.59;;;3.82;80.80
72336;BME280;65062;48.446;8.834;2023-02-01T07:52:34;98204.94;;;3.90;80.09
72336;BME280;65062;48.446;8.834;2023-02-01T07:55:37;98213.19;;;3.95;79.46
72336;BME280;65062;48.446;8.834;2023-02-01T07:58:38;98204.69;;;3.93;79.56
72336;BME280;65062;48.446;8.834;2023-02-01T08:01:38;98205.53;;;3.93;79.57
72336;BME280;65062;48.446;8.834;2023-02-01T08:04:38;98218.34;;;3.95;78.78
72336;BME280;65062;48.446;8.834;2023-02-01T08:07:39;98222.94;;;3.91;79.90
72336;BME280;65062;48.446;8.834;2023-02-01T08:10:39;98222.78;;;3.83;80.06
72336;BME280;65062;48.446;8.834;2023-02-01T08:13:40;98210.00;;;3.91;79.58
72336;BME280;65062;48.446;8.834;2023-02-01T08:16:40;98198.16;;;3.89;79.86
72336;BME280;65062;48.446;8.834;2023-02-01T08:19:40;98207.16;;;3.94;80.40
72336;BME280;65062;48.446;8.834;2023-02-01T08:22:41;98188.53;;;4.00;79.54
72336;BME280;65062;48.446;8.834;2023-02-01T08:25:41;98181.75;;;4.09;78.56
72336;BME280;65062;48.446;8.834;2023-02-01T08:28:44;98195.41;;;4.11;78.78
72336;BME280;65062;48.446;8.834;2023-02-01T08:31:46;98194.81;;;4.28;78.29
72336;BME280;65062;48.446;8.834;2023-02-01T08:34:46;98189.75;;;4.26;77.33
72336;BME280;65062;48.446;8.834;2023-02-01T08:37:49;98190.31;;;4.30;77.49
72336;BME280;65062;48.446;8.834;2023-02-01T08:40:50;98182.03;;;4.36;76.57
72336;BME280;65062;48.446;8.834;2023-02-01T08:43:51;98180.16;;;4.48;77.14
72336;BME280;65062;48.446;8.834;2023-02-01T08:46:52;98195.59;;;4.49;76.44
72336;BME280;65062;48.446;8.834;2023-02-01T08:49:53;98197.84;;;4.63;76.16
72336;BME280;65062;48.446;8.834;2023-02-01T08:52:53;98202.34;;;4.71;77.44
72336;BME280;65062;48.446;8.834;2023-02-01T08:55:54;98213.31;;;4.84;76.37
72336;BME280;65062;48.446;8.834;2023-02-01T08:58:54;98209.59;;;4.77;75.20
72336;BME280;65062;48.446;8.834;2023-02-01T09:01:55;98208.22;;;4.73;76.87
72336;BME280;65062;48.446;8.834;2023-02-01T09:04:56;98204.66;;;4.64;75.62
72336;BME280;65062;48.446;8.834;2023-02-01T09:07:56;98209.00;;;4.54;75.18
72336;BME280;65062;48.446;8.834;2023-02-01T09:11:05;98209.78;;;4.55;76.06
72336;BME280;65062;48.446;8.834;2023-02-01T09:14:06;98211.84;;;4.51;74.91
72336;BME280;65062;48.446;8.834;2023-02-01T09:17:07;98211.72;;;4.53;77.49
72336;BME280;65062;48.446;8.834;2023-02-01T09:20:09;98216.78;;;4.64;75.77
72336;BME280;65062;48.446;8.834;2023-02-01T09:23:09;98216.97;;;4.81;75.51
72336;BME280;65062;48.446;8.834;2023-02-01T09:26:09;98232.72;;;4.99;73.61
72336;BME280;65062;48.446;8.834;2023-02-01T09:29:11;98220.78;;;5.26;72.26
72336;BME280;65062;48.446;8.834;2023-02-01T09:32:12;98217.19;;;5.18;72.37
72336;BME280;65062;48.446;8.834;2023-02-01T09:35:12;98227.22;;;5.32;72.42
72336;BME280;65062;48.446;8.834;2023-02-01T09:38:13;98240.06;;;5.33;72.04
72336;BME280;65062;48.446;8.834;2023-02-01T09:41:38;98234.03;;;5.23;72.92
72336;BME280;65062;48.446;8.834;2023-02-01T09:47:55;98236.06;;;5.10;73.92
72336;BME280;65062;48.446;8.834;2023-02-01T09:50:59;98233.47;;;5.20;73.11
72336;BME280;65062;48.446;8.834;2023-02-01T09:54:08;98235.22;;;5.19;72.66
72336;BME280;65062;48.446;8.834;2023-02-01T09:57:16;98244.69;;;5.30;72.74
72336;BME280;65062;48.446;8.834;2023-02-01T10:00:30;98247.28;;;5.20;71.19
72336;BME280;65062;48.446;8.834;2023-02-01T10:03:35;98245.34;;;5.22;72.71
72336;BME280;65062;48.446;8.834;2023-02-01T10:07:17;98256.28;;;5.26;71.85
72336;BME280;65062;48.446;8.834;2023-02-01T10:10:31;98256.28;;;5.26;71.96
72336;BME280;65062;48.446;8.834;2023-02-01T10:13:48;98241.28;;;5.29;71.21
72336;BME280;65062;48.446;8.834;2023-02-01T10:24:10;98247.16;;;5.50;70.00
72336;BME280;65062;48.446;8.834;2023-02-01T10:27:22;98261.25;;;5.57;69.63
72336;BME280;65062;48.446;8.834;2023-02-01T10:30:29;98257.00;;;5.56;69.79
72336;BME280;65062;48.446;8.834;2023-02-01T10:37:00;98277.81;;;5.66;69.29
72336;BME280;65062;48.446;8.834;2023-02-01T10:40:43;98269.88;;;5.77;67.95
72336;BME280;65062;48.446;8.834;2023-02-01T10:43:20;98272.06;;;5.72;67.86
72336;BME280;65062;48.446;8.834;2023-02-01T10:46:22;98278.88;;;5.73;68.61
72336;BME280;65062;48.446;8.834;2023-02-01T10:49:32;98278.47;;;5.68;67.00
72336;BME280;65062;48.446;8.834;2023-02-01T10:52:41;98273.69;;;5.63;67.63
72336;BME280;65062;48.446;8.834;2023-02-01T10:55:49;98265.47;;;5.68;69.16
72336;BME280;65062;48.446;8.834;2023-02-01T10:58:50;98260.03;;;5.71;67.69
72336;BME280;65062;48.446;8.834;2023-02-01T11:01:59;98257.00;;;5.56;69.70
72336;BME280;65062;48.446;8.834;2023-02-01T11:05:07;98246.22;;;5.51;67.63
72336;BME280;65062;48.446;8.834;2023-02-01T11:08:15;98239.25;;;5.52;68.87
72336;BME280;65062;48.446;8.834;2023-02-01T11:11:18;98238.72;;;5.48;68.43
72336;BME280;65062;48.446;8.834;2023-02-01T11:17:28;98236.63;;;5.52;69.90
72336;BME280;65062;48.446;8.834;2023-02-01T11:23:33;98231.06;;;5.66;68.46
72336;BME280;65062;48.446;8.834;2023-02-01T11:26:39;98240.88;;;5.62;68.20
72336;BME280;65062;48.446;8.834;2023-02-01T11:29:43;98243.75;;;5.59;67.63
72336;BME280;65062;48.446;8.834;2023-02-01T11:32:46;98239.41;;;5.60;67.15
72336;BME280;65062;48.446;8.834;2023-02-01T11:35:48;98230.25;;;5.84;68.38
72336;BME280;65062;48.446;8.834;2023-02-01T11:39:07;98224.75;;;5.68;67.93
72336;BME280;65062;48.446;8.834;2023-02-01T11:42:16;98217.78;;;5.59;67.09
72336;BME280;65062;48.446;8.834;2023-02-01T11:45:23;98217.25;;;5.46;69.25
72336;BME280;65062;48.446;8.834;2023-02-01T11:48:26;98217.38;;;5.45;67.47
72336;BME280;65062;48.446;8.834;2023-02-01T11:51:54;98213.41;;;5.50;66.63
72336;BME280;65062;48.446;8.834;2023-02-01T11:58:17;98194.44;;;5.50;67.63
72336;BME280;65062;48.446;8.834;2023-02-01T12:05:03;98183.91;;;5.42;67.87
72336;BME280;65062;48.446;8.834;2023-02-01T12:21:43;98154.53;;;6.25;63.56
72336;BME280;65062;48.446;8.834;2023-02-01T12:38:44;98173.25;;;5.64;66.10
72336;BME280;65062;48.446;8.834;2023-02-01T12:41:53;98169.16;;;5.52;67.02
72336;BME280;65062;48.446;8.834;2023-02-01T12:51:12;98165.31;;;5.37;68.14
72336;BME280;65062;48.446;8.834;2023-02-01T12:54:20;98166.97;;;5.28;66.84
72336;BME280;65062;48.446;8.834;2023-02-01T12:57:28;98167.13;;;5.36;67.37
72336;BME280;65062;48.446;8.834;2023-02-01T13:00:40;98152.91;;;5.31;67.04
72336;BME280;65062;48.446;8.834;2023-02-01T13:06:51;98150.88;;;5.25;68.12
72336;BME280;65062;48.446;8.834;2023-02-01T13:16:47;98149.88;;;5.16;67.67
72336;BME280;65062;48.446;8.834;2023-02-01T13:20:03;98169.28;;;5.12;67.99
72336;BME280;65062;48.446;8.834;2023-02-01T13:23:13;98153.84;;;5.11;68.03
72336;BME280;65062;48.446;8.834;2023-02-01T13:26:16;98161.91;;;5.17;68.36
72336;BME280;65062;48.446;8.834;2023-02-01T13:29:17;98164.91;;;5.13;67.95
72336;BME280;65062;48.446;8.834;2023-02-01T13:32:28;98157.41;;;5.10;69.19
72336;BME280;65062;48.446;8.834;2023-02-01T13:39:41;98164.91;;;5.13;69.95
72336;BME280;65062;48.446;8.834;2023-02-01T13:42:31;98157.53;;;5.08;68.54
72336;BME280;65062;48.446;8.834;2023-02-01T13:45:36;98156.31;;;5.12;68.81
72336;BME280;65062;48.446;8.834;2023-02-01T13:48:50;98148.78;;;5.09;68.83
72336;BME280;65062;48.446;8.834;2023-02-01T13:51:54;98153.56;;;5.14;68.39
72336;BME280;65062;48.446;8.834;2023-02-01T13:55:02;98148.38;;;5.14;69.66
72336;BME280;65062;48.446;8.834;2023-02-01T13:58:19;98138.97;;;5.13;68.90
72336;BME280;65062;48.446;8.834;2023-02-01T14:04:46;98139.25;;;5.10;70.31
72336;BME280;65062;48.446;8.834;2023-02-01T14:11:06;98114.66;;;5.04;69.82
72336;BME280;65062;48.446;8.834;2023-02-01T14:17:33;98118.75;;;5.16;68.91
72336;BME280;65062;48.446;8.834;2023-02-01T14:20:41;98116.97;;;5.17;69.45
72336;BME280;65062;48.446;8.834;2023-02-01T14:23:45;98125.59;;;5.17;68.82
72336;BME280;65062;48.446;8.834;2023-02-01T14:26:48;98115.34;;;5.16;69.25
72336;BME280;65062;48.446;8.834;2023-02-01T14:29:56;98119.72;;;5.15;69.21
72336;BME280;65062;48.446;8.834;2023-02-01T14:32:58;98121.91;;;5.20;69.27
72336;BME280;65062;48.446;8.834;2023-02-01T14:36:12;98130.91;;;5.16;68.83
72336;BME280;65062;48.446;8.834;2023-02-01T14:39:33;98119.72;;;5.15;68.29
72336;BME280;65062;48.446;8.834;2023-02-01T14:45:48;98128.31;;;5.16;68.53
72336;BME280;65062;48.446;8.834;2023-02-01T14:48:56;98143.47;;;5.20;68.61
72336;BME280;65062;48.446;8.834;2023-02-01T14:51:57;98141.16;;;5.17;69.16
72336;BME280;65062;48.446;8.834;2023-02-01T14:55:03;98149.75;;;5.27;67.28
72336;BME280;65062;48.446;8.834;2023-02-01T14:58:32;98151.00;;;5.23;68.57
72336;BME280;65062;48.446;8.834;2023-02-01T15:01:37;98165.75;;;5.23;68.92
72336;BME280;65062;48.446;8.834;2023-02-01T15:04:42;98168.06;;;5.26;69.08
72336;BME280;65062;48.446;8.834;2023-02-01T15:07:43;98157.41;;;5.29;69.18
72336;BME280;65062;48.446;8.834;2023-02-01T15:10:46;98162.19;;;5.24;69.41
72336;BME280;65062;48.446;8.834;2023-02-01T15:13:50;98173.53;;;5.23;68.33
72336;BME280;65062;48.446;8.834;2023-02-01T15:16:51;98161.66;;;5.20;69.50
72336;BME280;65062;48.446;8.834;2023-02-01T15:19:58;98174.06;;;5.17;69.17
72336;BME280;65062;48.446;8.834;2023-02-01T15:23:05;98167.38;;;5.14;68.99
72336;BME280;65062;48.446;8.834;2023-02-01T15:26:05;98175.97;;;5.15;68.26
72336;BME280;65062;48.446;8.834;2023-02-01T15:29:10;98166.28;;;5.07;68.72
72336;BME280;65062;48.446;8.834;2023-02-01T15:35:45;98172.44;;;5.16;67.99
72336;BME280;65062;48.446;8.834;2023-02-01T15:38:46;98161.22;;;5.15;68.06
72336;BME280;65062;48.446;8.834;2023-02-01T15:41:52;98188.94;;;5.15;69.13
72336;BME280;65062;48.446;8.834;2023-02-01T15:44:53;98183.75;;;5.15;67.59
72336;BME280;65062;48.446;8.834;2023-02-01T15:47:55;98183.75;;;5.15;67.26
72336;BME280;65062;48.446;8.834;2023-02-01T15:50:57;98192.63;;;5.12;67.69
72336;BME280;65062;48.446;8.834;2023-02-01T15:54:06;98203.00;;;5.03;69.10
72336;BME280;65062;48.446;8.834;2023-02-01T15:57:08;98198.38;;;5.16;67.52
72336;BME280;65062;48.446;8.834;2023-02-01T16:03:37;98198.88;;;5.00;68.61
72336;BME280;65062;48.446;8.834;2023-02-01T16:06:45;98201.19;;;5.03;67.61
72336;BME280;65062;48.446;8.834;2023-02-01T16:09:55;98206.91;;;4.97;67.70
72336;BME280;65062;48.446;8.834;2023-02-01T16:12:56;98207.19;;;4.94;68.52
72336;BME280;65062;48.446;8.834;2023-02-01T16:16:00;98198.75;;;4.92;68.42
72336;BME280;65062;48.446;8.834;2023-02-01T16:19:01;98204.84;;;4.82;69.26
72336;BME280;65062;48.446;8.834;2023-02-01T16:22:01;98204.84;;;4.82;68.78
72336;BME280;65062;48.446;8.834;2023-02-01T16:25:01;98212.88;;;4.79;69.94
72336;BME280;65062;48.446;8.834;2023-02-01T16:28:02;98208.53;;;4.79;68.57
72336;BME280;65062;48.446;8.834;2023-02-01T16:31:03;98198.81;;;4.72;68.90
72336;BME280;65062;48.446;8.834;2023-02-01T16:34:04;98204.53;;;4.75;69.46
72336;BME280;65062;48.446;8.834;2023-02-01T16:37:05;98198.50;;;4.65;69.24
72336;BME280;65062;48.446;8.834;2023-02-01T16:40:12;98203.31;;;4.70;68.67
72336;BME280;65062;48.446;8.834;2023-02-01T16:43:18;98197.44;;;4.68;69.62
72336;BME280;65062;48.446;8.834;2023-02-01T16:46:22;98200.97;;;4.67;69.17
72336;BME280;65062;48.446;8.834;2023-02-01T16:49:25;98202.06;;;4.64;69.41
72336;BME280;65062;48.446;8.834;2023-02-01T16:52:26;98202.31;;;4.61;69.21
72336;BME280;65062;48.446;8.834;2023-02-01T16:55:26;98202.97;;;4.54;69.27
72336;BME280;65062;48.446;8.834;2023-02-01T16:58:28;98196.28;;;4.51;69.80
72336;BME280;65062;48.446;8.834;2023-02-01T17:01:28;98200.00;;;4.58;70.62
72336;BME280;65062;48.446;8.834;2023-02-01T17:04:28;98205.44;;;4.55;71.45
72336;BME280;65062;48.446;8.834;2023-02-01T17:07:29;98194.94;;;4.57;69.97
72336;BME280;65062;48.446;8.834;2023-02-01T17:10:30;98196.09;;;4.43;71.24
72336;BME280;65062;48.446;8.834;2023-02-01T17:13:31;98200.31;;;4.34;71.96
72336;BME280;65062;48.446;8.834;2023-02-01T17:16:32;98191.69;;;4.34;71.80
72336;BME280;65062;48.446;8.834;2023-02-01T17:19:32;98189.38;;;4.31;71.44
72336;BME280;65062;48.446;8.834;2023-02-01T17:22:32;98208.25;;;4.43;71.81
72336;BME280;65062;48.446;8.834;2023-02-01T17:25:33;98214.22;;;4.33;72.90
72336;BME280;65062;48.446;8.834;2023-02-01T17:28:33;98224.88;;;4.40;72.51
72336;BME280;65062;48.446;8.834;2023-02-01T17:31:39;98236.97;;;4.30;72.25
72336;BME280;65062;48.446;8.834;2023-02-01T17:34:40;98248.25;;;4.50;71.54
72336;BME280;65062;48.446;8.834;2023-02-01T17:37:41;98234.91;;;4.54;70.80
72336;BME280;65062;48.446;8.834;2023-02-01T17:40:41;98229.72;;;4.54;71.29
72336;BME280;65062;48.446;8.834;2023-02-01T17:43:42;98231.59;;;4.43;72.74
72336;BME280;65062;48.446;8.834;2023-02-01T17:46:42;98222.91;;;4.32;72.02
72336;BME280;65062;48.446;8.834;2023-02-01T17:49:43;98222.88;;;4.23;72.55
72336;BME280;65062;48.446;8.834;2023-02-01T17:52:43;98231.63;;;4.22;72.82
72336;BME280;65062;48.446;8.834;2023-02-01T17:55:44;98234.75;;;4.25;71.91
72336;BME280;65062;48.446;8.834;2023-02-01T17:58:46;98236.91;;;4.41;71.23
72336;BME280;65062;48.446;8.834;2023-02-01T18:01:46;98247.91;;;4.33;71.88
72336;BME280;65062;48.446;8.834;2023-02-01T18:04:48;98250.41;;;4.45;70.15
72336;BME280;65062;48.446;8.834;2023-02-01T18:07:48;98253.06;;;4.54;71.48
72336;BME280;65062;48.446;8.834;2023-02-01T18:10:51;98254.09;;;4.52;70.33
72336;BME280;65062;48.446;8.834;2023-02-01T18:13:52;98241.25;;;4.41;70.93
72336;BME280;65062;48.446;8.834;2023-02-01T18:16:53;98243.59;;;4.44;71.77
72336;BME280;65062;48.446;8.834;2023-02-01T18:19:53;98248.06;;;4.42;71.43
72336;BME280;65062;48.446;8.834;2023-02-01T18:22:53;98250.72;;;4.51;70.61
72336;BME280;65062;48.446;8.834;2023-02-01T18:25:54;98241.03;;;4.53;70.67
72336;BME280;65062;48.446;8.834;2023-02-01T18:28:54;98253.72;;;4.56;71.14
72336;BME280;65062;48.446;8.834;2023-02-01T18:31:55;98262.47;;;4.55;70.87